Time;durP1;ratioP1;P1;durP2;ratioP2;P2;SDS_P1;SDS_P2;PMS_P1;PMS_P2;Temp;Humidity;BMP_temperature;BMP_pressure;BME280_temperature;BME280_humidity;BME280_pressure;Samples;Min_cycle;Max_cycle;Signal;HPM_P1;HPM_P2
2022/09/25 00:01:10;;;;;;;;;;;11.60;99.90;;;;;;5104258;27;20463;-69
2022/09/25 00:03:37;;;;;;;40.00;21.70;;;11.60;99.90;;;;;;5106752;28;19927;-70
2022/09/25 00:06:06;;;;;;;37.10;22.92;;;11.60;99.90;;;;;;5102455;27;20040;-69
2022/09/25 00:08:33;;;;;;;40.72;24.85;;;11.60;99.90;;;;;;5104606;28;20040;-70
2022/09/25 00:11:03;;;;;;;53.72;30.10;;;11.60;99.90;;;;;;5104979;27;20503;-70
2022/09/25 00:13:29;;;;;;;42.45;24.33;;;11.60;99.90;;;;;;5107702;28;20122;-69
2022/09/25 00:15:55;;;;;;;;;;;11.60;99.90;;;;;;5112600;28;20138;-70
2022/09/25 00:21:08;;;;;;;38.92;23.77;;;11.60;99.90;;;;;;5089366;28;20035;-69
2022/09/25 00:23:34;;;;;;;48.13;26.60;;;11.60;99.90;;;;;;5093655;28;20049;-68
2022/09/25 00:26:01;;;;;;;42.92;26.20;;;11.60;99.90;;;;;;5098572;28;20503;-68
2022/09/25 00:28:28;;;;;;;47.78;24.77;;;11.60;99.90;;;;;;5090933;28;20044;-68
2022/09/25 00:30:55;;;;;;;41.53;25.27;;;11.60;99.90;;;;;;5097120;27;20036;-69
2022/09/25 00:33:21;;;;;;;44.08;25.48;;;11.60;99.90;;;;;;5092607;28;20480;-69
2022/09/25 00:35:47;;;;;;;51.20;29.20;;;11.60;99.90;;;;;;5095434;28;20036;-70
2022/09/25 00:38:12;;;;;;;;;;;11.60;99.90;;;;;;5095233;28;20029;-68
2022/09/25 00:40:38;;;;;;;52.50;29.00;;;11.60;99.90;;;;;;5092971;28;19919;-69
2022/09/25 00:43:04;;;;;;;;;;;11.60;99.90;;;;;;5101103;28;20399;-70
2022/09/25 00:45:30;;;;;;;49.40;26.53;;;11.60;99.90;;;;;;5093443;28;19923;-68
2022/09/25 00:48:00;;;;;;;;;;;11.60;99.90;;;;;;5088954;28;20149;-69
2022/09/25 00:50:31;;;;;;;50.42;29.13;;;11.60;99.90;;;;;;5092029;28;19911;-68
2022/09/25 00:53:07;;;;;;;52.40;29.30;;;11.60;99.90;;;;;;5087146;28;20044;-70
2022/09/25 00:55:36;;;;;;;68.80;32.80;;;11.60;99.90;;;;;;5093046;28;20044;-71
2022/09/25 00:58:03;;;;;;;57.42;31.60;;;11.60;99.90;;;;;;5086646;28;20064;-69
2022/09/25 01:00:30;;;;;;;54.70;32.13;;;11.50;99.90;;;;;;5089890;28;20036;-69
2022/09/25 01:02:56;;;;;;;58.10;32.67;;;11.50;99.90;;;;;;5082266;28;20118;-69
2022/09/25 01:05:24;;;;;;;;;;;11.50;99.90;;;;;;5091336;28;20309;-70
2022/09/25 01:07:51;;;;;;;56.58;31.00;;;11.50;99.90;;;;;;5085457;28;19923;-68
2022/09/25 01:10:19;;;;;;;53.25;32.30;;;11.60;99.90;;;;;;5081609;28;20094;-70
2022/09/25 01:12:47;;;;;;;46.38;27.92;;;11.50;99.90;;;;;;5087603;28;20420;-69
2022/09/25 01:15:17;;;;;;;46.75;27.90;;;11.50;99.90;;;;;;5090182;28;20754;-69
2022/09/25 01:18:11;;;;;;;51.58;29.35;;;11.60;99.90;;;;;;5089756;28;20051;-70
2022/09/25 01:20:51;;;;;;;40.35;25.55;;;11.60;99.90;;;;;;5093407;28;20040;-68
2022/09/25 01:23:20;;;;;;;46.00;28.27;;;11.60;99.90;;;;;;5091884;28;20495;-68
2022/09/25 01:26:35;;;;;;;52.78;29.85;;;11.60;99.90;;;;;;5094971;28;20112;-68
2022/09/25 01:29:35;;;;;;;46.03;26.70;;;11.60;99.90;;;;;;5077832;28;20090;-70
2022/09/25 01:32:19;;;;;;;42.10;25.90;;;11.60;99.90;;;;;;5090559;28;20044;-69
2022/09/25 01:35:06;;;;;;;40.75;24.15;;;11.50;99.90;;;;;;5090719;28;20719;-68
2022/09/25 01:37:49;;;;;;;41.45;24.25;;;11.50;99.90;;;;;;5094157;28;20098;-68
2022/09/25 01:40:23;;;;;;;48.08;25.70;;;11.60;99.90;;;;;;5086362;28;20143;-72
2022/09/25 01:42:59;;;;;;;41.70;25.13;;;11.60;99.90;;;;;;5091565;28;20404;-68
2022/09/25 01:45:45;;;;;;;40.13;23.58;;;11.60;99.90;;;;;;5092918;28;20380;-70
2022/09/25 01:48:15;;;;;;;38.55;21.98;;;11.60;99.90;;;;;;5092641;28;20073;-69
2022/09/25 01:50:54;;;;;;;43.47;22.92;;;11.50;99.90;;;;;;5093720;28;20047;-70
2022/09/25 01:53:28;;;;;;;33.95;19.90;;;11.50;99.90;;;;;;5086434;28;20096;-68
2022/09/25 01:55:59;;;;;;;40.95;22.52;;;11.50;99.90;;;;;;5081393;28;20062;-68
2022/09/25 01:58:37;;;;;;;36.45;21.88;;;11.50;99.90;;;;;;5076334;28;20105;-68
2022/09/25 02:01:21;;;;;;;38.20;21.25;;;11.50;99.90;;;;;;5079295;28;20043;-68
2022/09/25 02:03:55;;;;;;;32.20;19.58;;;11.40;99.90;;;;;;5075696;28;20043;-70
2022/09/25 02:06:21;;;;;;;37.15;19.92;;;11.40;99.90;;;;;;5079025;28;20518;-68
2022/09/25 02:08:52;;;;;;;33.60;19.92;;;11.40;99.90;;;;;;5077021;28;20080;-69
2022/09/25 02:11:18;;;;;;;35.17;19.83;;;11.40;99.90;;;;;;5079238;28;20036;-69
2022/09/25 02:13:56;;;;;;;;;;;11.40;99.90;;;;;;5088040;28;20028;-69
2022/09/25 02:16:30;;;;;;;41.00;20.65;;;11.30;99.90;;;;;;5094902;28;19927;-68
2022/09/25 02:21:48;;;;;;;37.30;20.60;;;11.30;99.90;;;;;;5098721;28;20119;-69
2022/09/25 02:24:13;;;;;;;49.47;23.05;;;11.20;99.90;;;;;;5088428;28;20659;-70
2022/09/25 02:26:39;;;;;;;;;;;11.10;99.90;;;;;;5099655;28;20084;-69
2022/09/25 02:29:07;;;;;;;41.30;22.02;;;11.00;99.90;;;;;;5090395;28;19916;-69
2022/09/25 02:31:52;;;;;;;40.08;22.30;;;11.00;99.90;;;;;;5097658;28;20032;-70
2022/09/25 02:34:18;;;;;;;34.42;19.35;;;11.00;99.90;;;;;;5090758;28;20063;-69
2022/09/25 02:36:44;;;;;;;;;;;11.00;99.90;;;;;;5099968;28;20128;-69
2022/09/25 02:39:12;;;;;;;48.88;25.25;;;11.00;99.90;;;;;;5082607;28;19919;-70
2022/09/25 02:41:49;;;;;;;35.13;20.98;;;11.00;99.90;;;;;;5098664;28;20521;-69
2022/09/25 02:44:42;;;;;;;41.78;22.25;;;11.00;99.90;;;;;;5090300;28;20504;-68
2022/09/25 02:47:31;;;;;;;35.35;20.55;;;11.10;99.90;;;;;;5089337;28;20075;-68
2022/09/25 02:50:07;;;;;;;37.75;20.25;;;11.10;99.90;;;;;;5081647;28;20042;-68
2022/09/25 02:52:49;;;;;;;37.45;20.15;;;11.10;99.90;;;;;;5095666;28;20072;-68
2022/09/25 02:55:33;;;;;;;42.15;21.27;;;11.20;99.90;;;;;;5094319;28;20188;-68
2022/09/25 02:58:15;;;;;;;51.30;26.00;;;11.20;99.90;;;;;;5095664;28;20415;-68
2022/09/25 03:00:45;;;;;;;41.58;23.80;;;11.10;99.90;;;;;;5084663;28;20077;-68
2022/09/25 03:03:13;;;;;;;53.10;24.42;;;11.00;99.90;;;;;;5096357;28;20067;-68
2022/09/25 03:05:40;;;;;;;39.78;22.63;;;10.90;99.90;;;;;;5079301;28;20046;-68
2022/09/25 03:10:50;;;;;;;33.35;19.13;;;10.70;99.90;;;;;;5077896;28;20079;-69
2022/09/25 03:13:21;;;;;;;;;;;10.70;99.90;;;;;;5104163;28;20120;-70
2022/09/25 03:15:54;;;;;;;30.95;18.05;;;10.70;99.90;;;;;;5076760;28;19961;-68
2022/09/25 03:18:20;;;;;;;29.70;18.13;;;10.70;99.90;;;;;;5102886;28;20044;-69
2022/09/25 03:20:45;;;;;;;30.40;17.95;;;10.80;99.90;;;;;;5081036;28;20041;-69
2022/09/25 03:23:11;;;;;;;;;;;10.80;99.90;;;;;;5087826;28;20043;-71
2022/09/25 03:25:37;;;;;;;26.80;16.10;;;10.70;99.90;;;;;;5090481;28;19923;-71
2022/09/25 03:28:09;;;;;;;30.25;17.70;;;10.70;99.90;;;;;;5083734;28;20036;-70
2022/09/25 03:30:37;;;;;;;30.58;17.40;;;10.70;99.90;;;;;;5089066;28;20035;-68
2022/09/25 03:33:03;;;;;;;27.83;16.63;;;10.70;99.90;;;;;;5093781;28;20047;-68
2022/09/25 03:35:29;;;;;;;32.08;17.63;;;10.70;99.90;;;;;;5092023;28;20039;-68
2022/09/25 03:37:55;;;;;;;;;;;10.60;99.90;;;;;;5085602;28;20089;-69
2022/09/25 03:40:20;;;;;;;29.70;16.30;;;10.60;99.90;;;;;;5088766;28;19972;-68
2022/09/25 03:42:46;;;;;;;25.83;15.98;;;10.60;99.90;;;;;;5094936;28;20128;-68
2022/09/25 03:45:11;;;;;;;;;;;10.70;99.90;;;;;;5092428;28;20063;-68
2022/09/25 03:47:37;;;;;;;26.15;15.50;;;10.70;99.90;;;;;;5094311;28;19955;-69
2022/09/25 03:50:02;;;;;;;;;;;10.70;99.90;;;;;;5095155;28;20513;-68
2022/09/25 03:52:28;;;;;;;30.50;17.05;;;10.70;99.90;;;;;;5096250;28;20391;-69
2022/09/25 03:54:53;;;;;;;;;;;10.60;99.90;;;;;;5096120;28;20039;-68
2022/09/25 03:57:19;;;;;;;38.47;18.75;;;10.60;99.90;;;;;;5098463;28;19916;-67
2022/09/25 03:59:44;;;;;;;;;;;10.60;99.90;;;;;;5089012;28;20496;-69
2022/09/25 04:02:11;;;;;;;30.30;17.10;;;10.60;99.90;;;;;;5094673;28;19919;-67
2022/09/25 04:04:37;;;;;;;31.17;17.25;;;10.60;99.90;;;;;;5092532;28;20508;-70
2022/09/25 04:07:02;;;;;;;;;;;10.60;99.90;;;;;;5091120;28;20036;-70
2022/09/25 04:09:28;;;;;;;30.23;17.13;;;10.60;99.90;;;;;;5085358;28;19981;-67
2022/09/25 04:11:55;;;;;;;;;;;10.60;99.90;;;;;;5091012;28;20028;-69
2022/09/25 04:14:21;;;;;;;30.20;15.85;;;10.50;99.90;;;;;;5093703;28;19977;-69
2022/09/25 04:16:46;;;;;;;30.73;15.40;;;10.50;99.90;;;;;;5098225;28;20118;-68
2022/09/25 04:19:12;;;;;;;;;;;10.60;99.90;;;;;;5095346;27;20131;-68
2022/09/25 04:21:37;;;;;;;29.85;17.10;;;10.60;99.90;;;;;;5096417;28;19998;-68
2022/09/25 04:26:52;;;;;;;33.85;18.92;;;10.50;99.90;;;;;;5098186;28;19919;-67
2022/09/25 04:29:20;;;;;;;31.90;18.20;;;10.40;99.90;;;;;;5094088;28;20050;-69
2022/09/25 04:33:44;;;;;;;35.92;18.42;;;10.40;99.90;;;;;;5096902;28;20040;-68
2022/09/25 04:34:31;;;;;;;41.47;19.55;;;10.40;99.90;;;;;;5091227;28;20036;-69
2022/09/25 04:36:56;;;;;;;;;;;10.30;99.90;;;;;;5099856;28;20086;-68
2022/09/25 04:39:22;;;;;;;39.00;20.23;;;10.30;99.90;;;;;;5084582;28;19920;-68
2022/09/25 04:41:47;;;;;;;48.88;22.02;;;10.30;99.90;;;;;;5099032;28;20118;-69
2022/09/25 04:44:13;;;;;;;;;;;10.20;99.90;;;;;;5093418;28;20042;-70
2022/09/25 04:46:38;;;;;;;35.70;18.77;;;10.30;99.90;;;;;;5099919;28;20332;-71
2022/09/25 04:49:04;;;;;;;;;;;10.30;99.90;;;;;;5088368;28;20067;-68
2022/09/25 04:51:30;;;;;;;34.83;16.73;;;10.20;99.90;;;;;;5087262;28;20300;-67
2022/09/25 04:53:55;;;;;;;;;;;10.20;99.90;;;;;;5092648;28;20040;-70
2022/09/25 04:56:21;;;;;;;32.17;15.93;;;10.30;99.90;;;;;;5099280;28;20312;-68
2022/09/25 04:58:48;;;;;;;;;;;10.30;99.90;;;;;;5094735;28;20043;-66
2022/09/25 05:01:16;;;;;;;29.92;14.10;;;10.30;99.90;;;;;;5091333;28;19919;-67
2022/09/25 05:03:41;;;;;;;26.50;15.18;;;10.30;99.90;;;;;;5093715;28;20047;-68
2022/09/25 05:06:07;;;;;;;;;;;10.40;99.90;;;;;;5087750;28;20123;-68
2022/09/25 05:08:33;;;;;;;27.95;14.73;;;10.30;99.90;;;;;;5094487;28;19920;-67
2022/09/25 05:10:58;;;;;;;;;;;10.30;99.90;;;;;;5081025;28;20147;-68
2022/09/25 05:13:24;;;;;;;28.02;15.38;;;10.30;99.90;;;;;;5083037;28;19923;-67
2022/09/25 05:15:49;;;;;;;;;;;10.30;99.90;;;;;;5079411;28;20040;-67
2022/09/25 05:18:19;;;;;;;29.10;14.68;;;10.30;99.90;;;;;;5075872;28;20606;-67
2022/09/25 05:20:45;;;;;;;34.38;16.88;;;10.20;99.90;;;;;;5074820;28;20044;-66
2022/09/25 05:23:10;;;;;;;34.22;14.75;;;10.30;99.90;;;;;;5093992;28;20093;-68
2022/09/25 05:25:36;;;;;;;;;;;10.30;99.90;;;;;;5095743;28;20047;-68
2022/09/25 05:28:02;;;;;;;32.45;15.93;;;10.30;99.90;;;;;;5097887;27;20003;-67
2022/09/25 05:30:29;;;;;;;;;;;10.20;99.90;;;;;;5091137;28;20042;-68
2022/09/25 05:32:58;;;;;;;33.97;17.75;;;10.30;99.90;;;;;;5093541;28;19912;-70
2022/09/25 05:35:25;;;;;;;26.45;15.10;;;10.30;99.90;;;;;;5093332;28;20042;-67
2022/09/25 05:37:51;;;;;;;35.22;17.05;;;10.20;99.90;;;;;;5100811;28;20040;-66
2022/09/25 05:40:18;;;;;;;;;;;10.20;99.90;;;;;;5089041;28;20039;-67
2022/09/25 05:42:44;;;;;;;38.40;14.40;;;10.20;99.90;;;;;;5103499;28;19943;-67
2022/09/25 05:45:10;;;;;;;;;;;10.20;99.90;;;;;;5089552;28;20054;-69
2022/09/25 05:47:36;;;;;;;24.77;13.07;;;10.10;99.90;;;;;;5104406;28;19920;-64
2022/09/25 05:50:03;;;;;;;28.83;14.00;;;10.10;99.90;;;;;;5089631;28;20040;-69
2022/09/25 05:52:29;;;;;;;19.63;12.18;;;10.20;99.90;;;;;;5077587;28;20071;-70
2022/09/25 05:54:55;;;;;;;;;;;10.20;99.90;;;;;;5092734;28;20462;-64
2022/09/25 05:57:22;;;;;;;28.13;12.37;;;10.20;99.90;;;;;;5105191;28;19977;-66
2022/09/25 05:59:48;;;;;;;20.30;10.60;;;10.30;99.90;;;;;;5088807;28;20048;-68
2022/09/25 06:02:15;;;;;;;20.42;11.05;;;10.30;99.90;;;;;;5094635;28;20535;-67
2022/09/25 06:04:41;;;;;;;28.27;12.13;;;10.30;99.90;;;;;;5092108;28;20123;-68
2022/09/25 06:07:08;;;;;;;;;;;10.40;99.90;;;;;;5091054;28;20131;-67
2022/09/25 06:09:34;;;;;;;21.88;9.52;;;10.40;99.90;;;;;;5078490;28;19920;-67
2022/09/25 06:12:01;;;;;;;20.48;11.10;;;10.50;99.90;;;;;;5092179;28;20048;-70
2022/09/25 06:14:27;;;;;;;26.60;11.25;;;10.50;99.90;;;;;;5074864;28;20094;-69
2022/09/25 06:16:52;;;;;;;;;;;10.50;99.90;;;;;;5101215;28;20039;-68
2022/09/25 06:19:18;;;;;;;20.13;10.77;;;10.50;99.90;;;;;;5082207;28;20542;-69
2022/09/25 06:21:43;;;;;;;;;;;10.50;99.90;;;;;;5089037;28;20036;-68
2022/09/25 06:24:09;;;;;;;25.10;10.68;;;10.50;99.90;;;;;;5091687;28;19920;-68
2022/09/25 06:26:35;;;;;;;;;;;10.60;99.90;;;;;;5085802;28;20059;-68
2022/09/25 06:29:02;;;;;;;17.15;9.38;;;10.60;99.90;;;;;;5085568;28;20305;-68
2022/09/25 06:31:28;;;;;;;20.52;9.50;;;10.60;99.90;;;;;;5083846;28;20559;-72
2022/09/25 06:33:53;;;;;;;;;;;10.60;99.90;;;;;;5076903;28;20050;-68
2022/09/25 06:36:19;;;;;;;19.17;9.80;;;10.60;99.90;;;;;;5087218;28;19924;-68
2022/09/25 06:38:44;;;;;;;;;;;10.60;99.90;;;;;;5077573;28;20109;-67
2022/09/25 06:41:11;;;;;;;18.15;8.07;;;10.60;99.90;;;;;;5087467;28;19998;-68
2022/09/25 06:43:36;;;;;;;16.40;8.35;;;10.60;99.90;;;;;;5099695;28;20036;-67
2022/09/25 06:46:02;;;;;;;;;;;10.60;99.90;;;;;;5099531;27;20097;-69
2022/09/25 06:48:29;;;;;;;28.70;9.30;;;10.60;99.90;;;;;;5087522;28;19927;-67
2022/09/25 06:50:57;;;;;;;24.60;9.70;;;10.60;99.90;;;;;;5097333;28;20035;-68
2022/09/25 06:53:24;;;;;;;16.90;8.77;;;10.60;99.90;;;;;;5088802;28;20040;-68
2022/09/25 06:55:50;;;;;;;20.20;8.90;;;10.50;99.90;;;;;;5095883;28;20087;-69
2022/09/25 06:58:18;;;;;;;;;;;10.60;99.90;;;;;;5087962;28;20060;-69
2022/09/25 07:00:49;;;;;;;20.05;6.97;;;10.60;99.90;;;;;;5090713;28;19980;-67
2022/09/25 07:06:01;;;;;;;16.98;7.55;;;10.60;99.90;;;;;;5087381;28;20376;-71
2022/09/25 07:08:27;;;;;;;16.77;6.97;;;10.60;99.90;;;;;;5081671;28;20496;-68
2022/09/25 07:10:55;;;;;;;16.02;7.95;;;10.60;99.90;;;;;;5089563;28;20036;-69
2022/09/25 07:13:26;;;;;;;15.32;8.15;;;10.50;99.90;;;;;;5091150;28;20032;-69
2022/09/25 07:15:56;;;;;;;14.55;6.63;;;10.50;99.90;;;;;;5086787;28;20042;-70
2022/09/25 07:18:23;;;;;;;17.48;7.47;;;10.60;99.90;;;;;;5091138;28;20145;-68
2022/09/25 07:20:50;;;;;;;16.10;7.18;;;10.60;99.90;;;;;;5095711;28;20079;-68
2022/09/25 07:23:21;;;;;;;14.50;7.30;;;10.60;99.90;;;;;;5094170;28;20058;-67
2022/09/25 07:25:47;;;;;;;12.60;7.32;;;10.60;99.90;;;;;;5088824;28;20075;-68
2022/09/25 07:28:13;;;;;;;;;;;10.60;99.90;;;;;;5101336;28;20071;-68
2022/09/25 07:30:40;;;;;;;19.00;6.22;;;10.60;99.90;;;;;;5095731;28;19971;-69
2022/09/25 07:33:06;;;;;;;14.07;5.22;;;10.70;99.90;;;;;;5099022;28;20036;-67
2022/09/25 07:35:34;;;;;;;;;;;10.70;99.90;;;;;;5095150;28;20772;-68
2022/09/25 07:38:00;;;;;;;14.80;5.97;;;10.60;99.90;;;;;;5097348;28;19926;-68
2022/09/25 07:40:27;;;;;;;;;;;10.60;99.90;;;;;;5094249;28;20039;-69
2022/09/25 07:43:02;;;;;;;19.02;6.13;;;10.70;99.90;;;;;;5100626;28;19919;-69
2022/09/25 07:45:28;;;;;;;14.00;5.30;;;10.60;99.90;;;;;;5098576;28;20146;-69
2022/09/25 07:48:02;;;;;;;13.40;5.50;;;10.60;99.90;;;;;;5096335;28;20492;-69
2022/09/25 07:50:31;;;;;;;17.75;5.57;;;10.60;99.90;;;;;;5095086;28;20042;-67
2022/09/25 07:52:57;;;;;;;15.07;6.00;;;10.60;99.90;;;;;;5089100;28;20505;-67
2022/09/25 07:55:23;;;;;;;13.00;5.03;;;10.60;99.90;;;;;;5094864;28;20043;-70
2022/09/25 07:57:49;;;;;;;;;;;10.70;99.90;;;;;;5094615;28;20798;-67
2022/09/25 08:00:16;;;;;;;13.63;4.40;;;10.70;99.90;;;;;;5087699;28;19916;-68
2022/09/25 08:02:41;;;;;;;12.50;3.67;;;10.80;99.90;;;;;;5099214;28;20694;-68
2022/09/25 08:05:07;;;;;;;;;;;10.80;99.90;;;;;;5094472;28;20093;-67
2022/09/25 08:07:33;;;;;;;14.70;4.38;;;10.80;99.90;;;;;;5097847;28;19920;-68
2022/09/25 08:09:58;;;;;;;;;;;10.70;99.90;;;;;;5081492;28;20460;-71
2022/09/25 08:12:24;;;;;;;11.00;3.40;;;10.80;99.90;;;;;;5096357;28;19920;-68
2022/09/25 08:14:53;;;;;;;;;;;10.80;99.90;;;;;;5097880;28;20491;-67
2022/09/25 08:17:21;;;;;;;16.10;3.47;;;10.90;99.90;;;;;;5101265;28;20022;-68
2022/09/25 08:19:46;;;;;;;12.63;3.55;;;10.90;99.90;;;;;;5094021;28;20419;-69
2022/09/25 08:22:12;;;;;;;;;;;10.90;99.90;;;;;;5102601;28;20040;-69
2022/09/25 08:24:37;;;;;;;11.85;4.10;;;10.80;99.90;;;;;;5092327;28;20367;-70
2022/09/25 08:27:03;;;;;;;;;;;10.80;99.90;;;;;;5103899;28;20036;-67
2022/09/25 08:29:29;;;;;;;17.70;4.18;;;10.80;99.90;;;;;;5093087;28;20295;-68
2022/09/25 08:31:56;;;;;;;17.27;4.53;;;10.70;99.90;;;;;;5088759;28;20492;-69
2022/09/25 08:34:21;;;;;;;12.40;3.70;;;10.70;99.90;;;;;;5092851;28;20067;-69
2022/09/25 08:36:47;;;;;;;;;;;10.70;99.90;;;;;;5102409;28;20075;-68
2022/09/25 08:39:13;;;;;;;16.27;3.97;;;10.70;99.90;;;;;;5091390;28;20387;-69
2022/09/25 08:41:50;;;;;;;;;;;10.70;99.90;;;;;;5103581;28;20045;-69
2022/09/25 08:44:33;;;;;;;13.57;4.40;;;10.70;99.90;;;;;;5094602;28;20327;-69
2022/09/25 08:50:22;;;;;;;13.18;4.07;;;10.60;99.90;;;;;;5097355;28;20035;-68
2022/09/25 08:52:52;;;;;;;13.88;4.65;;;10.70;99.90;;;;;;5097800;28;20047;-69
2022/09/25 08:58:23;;;;;;;9.25;3.63;;;10.60;99.90;;;;;;5091287;28;20040;-69
2022/09/25 09:00:53;;;;;;;9.43;3.63;;;10.70;99.90;;;;;;5088796;28;20036;-67
2022/09/25 09:03:21;;;;;;;12.32;4.18;;;10.70;99.90;;;;;;5097854;28;20059;-68
2022/09/25 09:05:50;;;;;;;13.68;4.43;;;10.70;99.90;;;;;;5083720;28;20098;-68
2022/09/25 09:08:24;;;;;;;16.80;5.30;;;10.70;99.90;;;;;;5090867;28;20044;-68
2022/09/25 09:11:06;;;;;;;13.80;4.55;;;10.60;99.90;;;;;;5083963;28;20076;-69
2022/09/25 09:13:45;;;;;;;16.08;4.38;;;10.50;99.90;;;;;;5095369;28;20071;-67
2022/09/25 09:16:26;;;;;;;15.43;4.13;;;10.60;99.90;;;;;;5094065;28;20046;-68
2022/09/25 09:18:53;;;;;;;15.98;4.55;;;10.60;99.90;;;;;;5089693;28;20064;-69
2022/09/25 09:21:40;;;;;;;17.70;4.57;;;10.70;99.90;;;;;;5092456;28;20046;-69
2022/09/25 09:24:13;;;;;;;;;;;10.70;99.90;;;;;;5090698;28;20043;-71
2022/09/25 09:27:02;;;;;;;17.40;4.82;;;10.80;99.90;;;;;;5088045;28;19924;-68
2022/09/25 09:30:00;;;;;;;18.33;5.72;;;10.90;99.90;;;;;;5092491;28;20036;-68
2022/09/25 09:32:56;;;;;;;10.73;3.83;;;10.90;99.90;;;;;;5087036;28;20036;-69
2022/09/25 09:35:58;;;;;;;14.05;4.32;;;10.90;99.90;;;;;;5085743;28;20150;-70
2022/09/25 09:38:57;;;;;;;11.77;4.15;;;10.80;99.90;;;;;;5087267;28;20047;-70
2022/09/25 09:41:43;;;;;;;13.38;4.82;;;10.90;99.90;;;;;;5078890;28;20040;-68
2022/09/25 09:44:27;;;;;;;7.45;3.78;;;10.90;99.90;;;;;;5088773;28;20041;-68
2022/09/25 09:47:12;;;;;;;9.48;4.38;;;10.90;99.90;;;;;;5102611;28;20047;-69
2022/09/25 09:49:49;;;;;;;9.77;4.30;;;10.90;99.90;;;;;;5081243;28;20044;-66
2022/09/25 09:52:34;;;;;;;12.45;4.50;;;10.90;99.90;;;;;;5080718;28;20044;-69
2022/09/25 09:55:03;;;;;;;10.60;3.83;;;11.00;99.90;;;;;;5083102;28;20036;-68
2022/09/25 09:57:34;;;;;;;12.52;3.45;;;11.00;99.90;;;;;;5081204;28;20040;-69
2022/09/25 10:00:14;;;;;;;10.95;3.80;;;11.00;99.90;;;;;;5083763;28;20043;-67
2022/09/25 10:02:41;;;;;;;14.30;4.18;;;11.00;99.90;;;;;;5076711;28;20848;-67
2022/09/25 10:05:16;;;;;;;11.13;3.30;;;11.00;99.90;;;;;;5091019;28;20556;-68
2022/09/25 10:07:43;;;;;;;17.38;3.28;;;11.00;99.90;;;;;;5088965;28;20044;-66
2022/09/25 10:10:13;;;;;;;17.83;3.70;;;11.00;99.90;;;;;;5073546;28;20039;-66
2022/09/25 10:12:50;;;;;;;13.77;3.05;;;11.00;99.90;;;;;;5094242;28;20077;-68
2022/09/25 10:15:34;;;;;;;15.95;3.97;;;11.00;99.90;;;;;;5093635;28;20046;-69
2022/09/25 10:18:01;;;;;;;13.65;2.60;;;11.00;99.90;;;;;;5074390;28;20051;-66
2022/09/25 10:20:40;;;;;;;10.90;3.33;;;11.00;99.90;;;;;;5080975;28;20056;-67
2022/09/25 10:23:29;;;;;;;11.60;3.08;;;10.90;99.90;;;;;;5085594;28;20504;-67
2022/09/25 10:25:54;;;;;;;8.50;2.88;;;10.90;99.90;;;;;;5094079;28;20039;-67
2022/09/25 10:28:21;;;;;;;;;;;10.90;99.90;;;;;;5095167;28;20032;-66
2022/09/25 10:30:47;;;;;;;9.10;2.50;;;11.00;99.90;;;;;;5095035;28;20433;-68
2022/09/25 10:33:24;;;;;;;12.93;2.75;;;11.10;99.90;;;;;;5095058;28;20048;-67
2022/09/25 10:35:53;;;;;;;9.90;2.45;;;11.10;99.90;;;;;;5090973;28;20737;-67
2022/09/25 10:38:34;;;;;;;14.15;2.38;;;11.20;99.90;;;;;;5092449;28;20041;-68
2022/09/25 10:41:12;;;;;;;9.07;2.20;;;11.20;99.90;;;;;;5098926;27;20407;-67
2022/09/25 10:43:52;;;;;;;9.55;1.95;;;11.20;99.90;;;;;;5099618;28;20094;-67
2022/09/25 10:52:07;;;;;;;11.30;1.65;;;11.20;99.90;;;;;;5092565;28;20063;-67
2022/09/25 10:54:34;;;;;;;10.00;1.70;;;11.40;99.90;;;;;;5087014;28;20049;-67
2022/09/25 10:57:01;;;;;;;14.70;2.88;;;11.40;99.90;;;;;;5104883;28;20523;-68
2022/09/25 10:59:27;;;;;;;10.48;3.13;;;11.40;99.90;;;;;;5088802;28;20683;-66
2022/09/25 11:01:54;;;;;;;8.32;2.15;;;11.50;99.90;;;;;;5096292;28;20028;-68
2022/09/25 11:04:25;;;;;;;9.75;1.98;;;11.50;99.90;;;;;;5085865;28;20035;-67
2022/09/25 11:06:56;;;;;;;12.02;1.45;;;11.50;99.90;;;;;;5091867;28;20044;-68
2022/09/25 11:09:23;;;;;;;8.05;1.58;;;11.60;99.90;;;;;;5083862;28;20040;-67
2022/09/25 11:11:52;;;;;;;9.13;1.90;;;11.60;99.90;;;;;;5089618;28;20097;-66
2022/09/25 11:14:32;;;;;;;11.95;1.60;;;11.60;99.90;;;;;;5091080;28;20524;-70
2022/09/25 11:17:00;;;;;;;8.43;1.50;;;11.70;99.90;;;;;;5087510;28;20449;-68
2022/09/25 11:19:31;;;;;;;8.60;1.77;;;11.70;99.90;;;;;;5078354;28;20454;-66
2022/09/25 11:22:10;;;;;;;11.25;1.70;;;11.60;99.90;;;;;;5082782;28;20035;-69
2022/09/25 11:24:50;;;;;;;11.68;1.88;;;11.60;99.90;;;;;;5090471;28;20051;-67
2022/09/25 11:27:21;;;;;;;8.95;1.88;;;11.70;99.90;;;;;;5094895;28;20125;-66
2022/09/25 11:29:59;;;;;;;5.78;1.40;;;11.70;99.90;;;;;;5093107;28;20045;-68
2022/09/25 11:32:33;;;;;;;13.82;2.65;;;11.70;99.90;;;;;;5088597;28;20075;-66
2022/09/25 11:35:20;;;;;;;8.75;2.00;;;11.70;99.90;;;;;;5080771;28;20034;-69
2022/09/25 11:37:55;;;;;;;5.05;1.45;;;11.80;99.90;;;;;;5077310;28;20126;-68
2022/09/25 11:44:08;;;;;;;11.43;1.42;;;11.80;99.90;;;;;;5081257;28;20048;-69
2022/09/25 11:47:11;;;;;;;11.18;1.83;;;11.70;99.90;;;;;;5080281;28;20495;-68
2022/09/25 11:49:39;;;;;;;7.55;1.52;;;11.80;99.90;;;;;;5091507;28;20119;-68
2022/09/25 11:52:40;;;;;;;10.73;1.60;;;11.70;99.90;;;;;;5099058;28;20047;-67
2022/09/25 11:55:25;;;;;;;5.30;1.30;;;11.90;99.90;;;;;;5080183;28;20047;-68
2022/09/25 11:58:21;;;;;;;7.15;1.60;;;12.00;99.90;;;;;;5093471;28;20048;-67
2022/09/25 12:01:17;;;;;;;7.43;1.37;;;12.10;99.90;;;;;;5099968;28;20043;-67
2022/09/25 12:04:11;;;;;;;16.05;1.92;;;12.20;99.90;;;;;;5086234;28;20287;-67
2022/09/25 12:07:12;;;;;;;11.75;2.28;;;12.20;99.90;;;;;;5093490;28;20047;-70
2022/09/25 12:10:20;;;;;;;7.88;1.80;;;12.20;99.90;;;;;;5045401;28;20441;-66
2022/09/25 12:13:04;;;;;;;11.93;3.20;;;12.20;99.90;;;;;;5078912;28;20087;-66
2022/09/25 12:16:01;;;;;;;13.80;3.55;;;12.30;99.90;;;;;;5096281;28;20043;-68
2022/09/25 12:18:45;;;;;;;10.02;1.90;;;12.30;99.90;;;;;;5088789;28;20039;-66
2022/09/25 12:21:23;;;;;;;8.40;1.27;;;12.20;99.90;;;;;;5099961;28;20046;-67
2022/09/25 12:24:02;;;;;;;6.72;1.77;;;12.20;99.90;;;;;;5092599;28;20664;-66
2022/09/25 12:26:32;;;;;;;14.18;2.13;;;12.10;99.90;;;;;;5102430;28;20135;-66
2022/09/25 12:29:40;;;;;;;12.27;3.10;;;12.00;99.90;;;;;;5085204;28;20035;-68
2022/09/25 12:32:35;;;;;;;7.75;1.85;;;11.80;99.90;;;;;;5087513;28;20504;-69
2022/09/25 12:35:38;;;;;;;5.53;1.75;;;11.60;99.90;;;;;;5087756;28;20065;-68
2022/09/25 12:38:31;;;;;;;9.50;3.22;;;11.60;99.90;;;;;;5070693;28;20131;-68
2022/09/25 12:41:32;;;;;;;13.85;2.08;;;11.60;99.90;;;;;;5095132;28;20036;-67
2022/09/25 12:44:10;;;;;;;12.25;2.30;;;11.60;99.90;;;;;;5087011;28;20051;-68
2022/09/25 12:46:54;;;;;;;10.07;1.80;;;11.70;99.90;;;;;;5103825;28;20093;-66
2022/09/25 12:49:31;;;;;;;8.55;1.92;;;11.80;99.90;;;;;;5094786;28;20748;-69
2022/09/25 12:52:05;;;;;;;5.40;1.80;;;11.90;99.90;;;;;;5088157;28;20139;-66
2022/09/25 12:54:53;;;;;;;4.72;1.73;;;11.90;99.90;;;;;;5088892;28;20044;-68
2022/09/25 12:57:44;;;;;;;9.98;1.60;;;11.90;99.90;;;;;;5100235;28;20032;-67
2022/09/25 13:00:20;;;;;;;4.43;1.60;;;11.90;99.90;;;;;;5088016;28;20031;-66
2022/09/25 13:02:51;;;;;;;4.63;1.80;;;12.00;99.90;;;;;;5098297;28;20907;-66
2022/09/25 13:05:39;;;;;;;5.80;1.90;;;11.90;99.90;;;;;;5086098;28;20408;-66
2022/09/25 13:08:15;;;;;;;11.00;1.80;;;11.90;99.90;;;;;;5093923;28;20044;-67
2022/09/25 13:10:43;;;;;;;;;;;11.90;99.90;;;;;;5083860;28;20044;-68
2022/09/25 13:13:18;;;;;;;9.27;1.85;;;12.00;99.90;;;;;;5099460;28;19942;-68
2022/09/25 13:15:51;;;;;;;4.25;1.60;;;12.00;99.90;;;;;;5093389;28;20043;-67
2022/09/25 13:18:22;;;;;;;13.88;1.58;;;12.00;99.90;;;;;;5091047;28;20095;-68
2022/09/25 13:21:03;;;;;;;4.78;1.38;;;12.00;99.90;;;;;;5086596;28;20035;-68
2022/09/25 13:23:39;;;;;;;9.30;1.45;;;12.10;99.90;;;;;;5097366;28;20412;-68
2022/09/25 13:26:15;;;;;;;5.93;1.75;;;12.20;99.90;;;;;;5094501;28;20146;-66
2022/09/25 13:29:13;;;;;;;4.38;1.05;;;12.20;99.90;;;;;;5094658;28;20071;-67
2022/09/25 13:31:43;;;;;;;6.50;1.92;;;12.30;99.90;;;;;;5095272;28;20050;-66
2022/09/25 13:34:14;;;;;;;7.93;1.20;;;12.30;99.90;;;;;;5091594;28;20036;-68
2022/09/25 13:36:47;;;;;;;8.90;1.05;;;12.30;99.90;;;;;;5100836;28;20412;-65
2022/09/25 13:42:25;;;;;;;8.13;1.15;;;12.40;99.90;;;;;;5095957;28;20036;-67
2022/09/25 13:45:16;;;;;;;8.90;1.25;;;12.50;99.90;;;;;;5093677;28;20043;-68
2022/09/25 13:47:49;;;;;;;4.80;0.98;;;12.50;99.90;;;;;;5098065;28;20127;-67
2022/09/25 13:50:21;;;;;;;3.47;0.93;;;12.50;99.90;;;;;;5096623;28;20034;-66